sensor_id;sensor_type;location;lat;lon;timestamp;pressure;altitude;pressure_sealevel;temperature;humidity
10115;BME280;5097;43.260;27.812;2023-11-21T00:02:04;99907.53;;;6.64;100.00
10115;BME280;5097;43.260;27.812;2023-11-21T00:04:48;99943.94;;;7.16;100.00
10115;BME280;5097;43.260;27.812;2023-11-21T00:07:32;99941.13;;;6.56;100.00
10115;BME280;5097;43.260;27.812;2023-11-21T00:10:16;99938.44;;;6.35;100.00
10115;BME280;5097;43.260;27.812;2023-11-21T00:13:01;99945.09;;;6.66;100.00
10115;BME280;5097;43.260;27.812;2023-11-21T00:15:45;99938.72;;;6.94;100.00
10115;BME280;5097;43.260;27.812;2023-11-21T00:18:30;99934.97;;;6.57;100.00
10115;BME280;5097;43.260;27.812;2023-11-21T00:21:14;99951.81;;;6.74;100.00
10115;BME280;5097;43.260;27.812;2023-11-21T00:23:58;99950.00;;;7.18;100.00
10115;BME280;5097;43.260;27.812;2023-11-21T00:26:42;99946.72;;;6.47;100.00
10115;BME280;5097;43.260;27.812;2023-11-21T00:29:27;99939.06;;;5.95;100.00
10115;BME280;5097;43.260;27.812;2023-11-21T00:32:11;99942.88;;;6.33;100.00
10115;BME280;5097;43.260;27.812;2023-11-21T00:34:57;99945.63;;;6.30;100.00
10115;BME280;5097;43.260;27.812;2023-11-21T00:37:45;99939.34;;;5.87;100.00
10115;BME280;5097;43.260;27.812;2023-11-21T00:40:32;99927.06;;;5.64;100.00
10115;BME280;5097;43.260;27.812;2023-11-21T00:43:16;99935.59;;;6.42;100.00
10115;BME280;5097;43.260;27.812;2023-11-21T00:46:04;99947.59;;;6.47;100.00
10115;BME280;5097;43.260;27.812;2023-11-21T00:48:48;99946.00;;;6.43;100.00
10115;BME280;5097;43.260;27.812;2023-11-21T00:51:33;99947.09;;;6.37;100.00
10115;BME280;5097;43.260;27.812;2023-11-21T00:54:18;99940.25;;;5.86;100.00
10115;BME280;5097;43.260;27.812;2023-11-21T00:57:02;99938.22;;;6.18;100.00
10115;BME280;5097;43.260;27.812;2023-11-21T00:59:46;99935.31;;;6.02;100.00
10115;BME280;5097;43.260;27.812;2023-11-21T01:02:30;99916.22;;;6.22;100.00
10115;BME280;5097;43.260;27.812;2023-11-21T01:05:14;99944.03;;;6.26;100.00
10115;BME280;5097;43.260;27.812;2023-11-21T01:07:59;99952.28;;;5.66;100.00
10115;BME280;5097;43.260;27.812;2023-11-21T01:10:43;99946.78;;;5.24;100.00
10115;BME280;5097;43.260;27.812;2023-11-21T01:13:28;99949.47;;;4.68;100.00
10115;BME280;5097;43.260;27.812;2023-11-21T01:16:13;99942.00;;;5.36;100.00
10115;BME280;5097;43.260;27.812;2023-11-21T01:18:57;99944.13;;;5.50;100.00
10115;BME280;5097;43.260;27.812;2023-11-21T01:21:41;99946.22;;;5.66;100.00
10115;BME280;5097;43.260;27.812;2023-11-21T01:24:27;99942.44;;;4.97;100.00
10115;BME280;5097;43.260;27.812;2023-11-21T01:27:11;99926.28;;;5.36;100.00
10115;BME280;5097;43.260;27.812;2023-11-21T01:29:55;99936.09;;;5.04;100.00
10115;BME280;5097;43.260;27.812;2023-11-21T01:32:39;99935.53;;;4.40;100.00
10115;BME280;5097;43.260;27.812;2023-11-21T01:35:24;99929.09;;;5.30;100.00
10115;BME280;5097;43.260;27.812;2023-11-21T01:38:08;99931.25;;;4.92;100.00
10115;BME280;5097;43.260;27.812;2023-11-21T01:40:55;99934.00;;;5.41;100.00
10115;BME280;5097;43.260;27.812;2023-11-21T01:43:39;99933.19;;;5.39;100.00
10115;BME280;5097;43.260;27.812;2023-11-21T01:46:23;99933.31;;;5.60;100.00
10115;BME280;5097;43.260;27.812;2023-11-21T01:49:08;99933.09;;;5.66;100.00
10115;BME280;5097;43.260;27.812;2023-11-21T01:51:57;99887.22;;;5.54;100.00
10115;BME280;5097;43.260;27.812;2023-11-21T01:54:42;99926.28;;;5.36;100.00
10115;BME280;5097;43.260;27.812;2023-11-21T01:57:28;99894.22;;;5.79;100.00
10115;BME280;5097;43.260;27.812;2023-11-21T02:00:13;99937.53;;;6.13;100.00
10115;BME280;5097;43.260;27.812;2023-11-21T02:02:59;99939.13;;;6.17;100.00
10115;BME280;5097;43.260;27.812;2023-11-21T02:05:43;99938.31;;;5.91;100.00
10115;BME280;5097;43.260;27.812;2023-11-21T02:08:27;99926.16;;;6.36;100.00
10115;BME280;5097;43.260;27.812;2023-11-21T02:11:11;99924.44;;;6.13;100.00
10115;BME280;5097;43.260;27.812;2023-11-21T02:13:59;99903.41;;;5.89;100.00
10115;BME280;5097;43.260;27.812;2023-11-21T02:16:43;99939.19;;;6.39;100.00
10115;BME280;5097;43.260;27.812;2023-11-21T02:19:31;99940.91;;;6.16;100.00
10115;BME280;5097;43.260;27.812;2023-11-21T02:22:38;99937.38;;;5.68;100.00
10115;BME280;5097;43.260;27.812;2023-11-21T02:25:25;99933.38;;;5.58;100.00
10115;BME280;5097;43.260;27.812;2023-11-21T02:28:11;99940.50;;;5.54;100.00
10115;BME280;5097;43.260;27.812;2023-11-21T02:30:58;99943.25;;;5.25;100.00
10115;BME280;5097;43.260;27.812;2023-11-21T02:33:42;99940.13;;;5.40;100.00
10115;BME280;5097;43.260;27.812;2023-11-21T02:36:26;99946.72;;;5.52;100.00
10115;BME280;5097;43.260;27.812;2023-11-21T02:39:10;99909.41;;;4.93;100.00
10115;BME280;5097;43.260;27.812;2023-11-21T02:41:57;99930.19;;;4.71;100.00
10115;BME280;5097;43.260;27.812;2023-11-21T02:44:41;99933.28;;;4.84;100.00
10115;BME280;5097;43.260;27.812;2023-11-21T02:47:25;99937.28;;;5.21;100.00
10115;BME280;5097;43.260;27.812;2023-11-21T02:50:10;99941.78;;;5.43;100.00
10115;BME280;5097;43.260;27.812;2023-11-21T02:52:54;99939.13;;;4.92;100.00
10115;BME280;5097;43.260;27.812;2023-11-21T02:55:40;99920.38;;;5.04;100.00
10115;BME280;5097;43.260;27.812;2023-11-21T02:58:26;99928.41;;;5.00;100.00
10115;BME280;5097;43.260;27.812;2023-11-21T03:01:10;99939.00;;;5.47;100.00
10115;BME280;5097;43.260;27.812;2023-11-21T03:03:55;99937.50;;;5.65;100.00
10115;BME280;5097;43.260;27.812;2023-11-21T03:06:39;99925.81;;;5.25;100.00
10115;BME280;5097;43.260;27.812;2023-11-21T03:09:24;99963.16;;;5.56;100.00
10115;BME280;5097;43.260;27.812;2023-11-21T03:12:10;99960.78;;;4.97;100.00
10115;BME280;5097;43.260;27.812;2023-11-21T03:14:56;99958.81;;;4.49;100.00
10115;BME280;5097;43.260;27.812;2023-11-21T03:17:40;99964.94;;;4.48;100.00
10115;BME280;5097;43.260;27.812;2023-11-21T03:20:24;99963.38;;;4.70;100.00
10115;BME280;5097;43.260;27.812;2023-11-21T03:23:08;99969.66;;;4.65;100.00
10115;BME280;5097;43.260;27.812;2023-11-21T03:25:52;99975.69;;;4.67;100.00
10115;BME280;5097;43.260;27.812;2023-11-21T03:28:36;99972.00;;;4.44;100.00
10115;BME280;5097;43.260;27.812;2023-11-21T03:31:22;99962.94;;;4.56;100.00
10115;BME280;5097;43.260;27.812;2023-11-21T03:34:06;99965.88;;;4.45;100.00
10115;BME280;5097;43.260;27.812;2023-11-21T03:36:50;99955.78;;;4.90;100.00
10115;BME280;5097;43.260;27.812;2023-11-21T03:39:35;99951.19;;;4.69;100.00
10115;BME280;5097;43.260;27.812;2023-11-21T03:42:19;99948.47;;;4.99;100.00
10115;BME280;5097;43.260;27.812;2023-11-21T03:45:07;99954.22;;;4.84;100.00
10115;BME280;5097;43.260;27.812;2023-11-21T03:47:53;99951.91;;;5.01;100.00
10115;BME280;5097;43.260;27.812;2023-11-21T03:50:37;99948.03;;;4.86;100.00
10115;BME280;5097;43.260;27.812;2023-11-21T03:53:21;99949.81;;;5.11;100.00
10115;BME280;5097;43.260;27.812;2023-11-21T03:56:06;99924.19;;;4.94;100.00
10115;BME280;5097;43.260;27.812;2023-11-21T03:58:50;99958.84;;;5.02;100.00
10115;BME280;5097;43.260;27.812;2023-11-21T04:01:34;99955.41;;;5.00;100.00
10115;BME280;5097;43.260;27.812;2023-11-21T04:04:20;99965.84;;;5.02;100.00
10115;BME280;5097;43.260;27.812;2023-11-21T04:07:04;99973.31;;;5.65;100.00
10115;BME280;5097;43.260;27.812;2023-11-21T04:09:48;99965.53;;;5.63;100.00
10115;BME280;5097;43.260;27.812;2023-11-21T04:12:32;99971.72;;;5.35;100.00
10115;BME280;5097;43.260;27.812;2023-11-21T04:15:16;99967.00;;;5.70;100.00
10115;BME280;5097;43.260;27.812;2023-11-21T04:18:00;99955.56;;;4.69;100.00
10115;BME280;5097;43.260;27.812;2023-11-21T04:20:48;99967.31;;;5.11;100.00
10115;BME280;5097;43.260;27.812;2023-11-21T04:23:32;99951.91;;;5.01;100.00
10115;BME280;5097;43.260;27.812;2023-11-21T04:26:17;99966.47;;;5.35;100.00
10115;BME280;5097;43.260;27.812;2023-11-21T04:29:01;99965.97;;;5.51;100.00
10115;BME280;5097;43.260;27.812;2023-11-21T04:31:45;99957.59;;;5.40;100.00
10115;BME280;5097;43.260;27.812;2023-11-21T04:34:30;99955.78;;;5.16;100.00
10115;BME280;5097;43.260;27.812;2023-11-21T04:37:16;99956.53;;;5.20;100.00
10115;BME280;5097;43.260;27.812;2023-11-21T04:40:00;99955.59;;;4.94;100.00
10115;BME280;5097;43.260;27.812;2023-11-21T04:42:46;99961.56;;;4.99;100.00
10115;BME280;5097;43.260;27.812;2023-11-21T04:45:30;99967.78;;;5.22;100.00
10115;BME280;5097;43.260;27.812;2023-11-21T04:48:14;99945.56;;;4.53;100.00
10115;BME280;5097;43.260;27.812;2023-11-21T04:50:59;99973.56;;;5.07;100.00
10115;BME280;5097;43.260;27.812;2023-11-21T04:53:44;99971.81;;;4.79;100.00
10115;BME280;5097;43.260;27.812;2023-11-21T04:56:28;99979.13;;;4.67;100.00
10115;BME280;5097;43.260;27.812;2023-11-21T04:59:12;99945.25;;;4.91;100.00
10115;BME280;5097;43.260;27.812;2023-11-21T05:01:57;99975.16;;;4.84;100.00
10115;BME280;5097;43.260;27.812;2023-11-21T05:04:43;99971.59;;;4.58;100.00
10115;BME280;5097;43.260;27.812;2023-11-21T05:07:27;99986.19;;;4.37;100.00
10115;BME280;5097;43.260;27.812;2023-11-21T05:10:15;99983.06;;;4.82;100.00
10115;BME280;5097;43.260;27.812;2023-11-21T05:13:00;99964.75;;;4.81;100.00
10115;BME280;5097;43.260;27.812;2023-11-21T05:15:44;99976.19;;;5.07;100.00
10115;BME280;5097;43.260;27.812;2023-11-21T05:18:28;99973.94;;;5.21;100.00
10115;BME280;5097;43.260;27.812;2023-11-21T05:21:13;99970.63;;;5.16;100.00
10115;BME280;5097;43.260;27.812;2023-11-21T05:23:57;99982.47;;;5.53;100.00
10115;BME280;5097;43.260;27.812;2023-11-21T05:26:43;99983.22;;;5.82;100.00
10115;BME280;5097;43.260;27.812;2023-11-21T05:29:28;99963.31;;;5.76;100.00
10115;BME280;5097;43.260;27.812;2023-11-21T05:32:12;99986.16;;;5.73;100.00
10115;BME280;5097;43.260;27.812;2023-11-21T05:34:56;99982.13;;;5.87;100.00
10115;BME280;5097;43.260;27.812;2023-11-21T05:37:41;99981.22;;;5.88;100.00
10115;BME280;5097;43.260;27.812;2023-11-21T05:40:25;99888.38;;;5.70;100.00
10115;BME280;5097;43.260;27.812;2023-11-21T05:43:13;99981.44;;;6.31;100.00
10115;BME280;5097;43.260;27.812;2023-11-21T05:45:58;99981.66;;;6.49;100.00
10115;BME280;5097;43.260;27.812;2023-11-21T05:48:42;99986.28;;;6.42;100.00
10115;BME280;5097;43.260;27.812;2023-11-21T05:51:26;99979.84;;;6.95;100.00
10115;BME280;5097;43.260;27.812;2023-11-21T05:54:10;99987.69;;;6.51;100.00
10115;BME280;5097;43.260;27.812;2023-11-21T05:56:54;99974.78;;;6.68;100.00
10115;BME280;5097;43.260;27.812;2023-11-21T05:59:40;99994.41;;;6.58;100.00
10115;BME280;5097;43.260;27.812;2023-11-21T06:02:24;99992.94;;;7.17;100.00
10115;BME280;5097;43.260;27.812;2023-11-21T06:05:09;99994.22;;;7.70;100.00
10115;BME280;5097;43.260;27.812;2023-11-21T06:07:55;99994.19;;;7.91;100.00
10115;BME280;5097;43.260;27.812;2023-11-21T06:10:43;99986.63;;;7.83;100.00
10115;BME280;5097;43.260;27.812;2023-11-21T06:13:27;100004.97;;;8.05;100.00
10115;BME280;5097;43.260;27.812;2023-11-21T06:16:13;100015.66;;;8.21;100.00
10115;BME280;5097;43.260;27.812;2023-11-21T06:18:59;100011.75;;;8.30;100.00
10115;BME280;5097;43.260;27.812;2023-11-21T06:21:45;100016.56;;;8.60;99.17
10115;BME280;5097;43.260;27.812;2023-11-21T06:24:29;100022.09;;;8.54;99.19
10115;BME280;5097;43.260;27.812;2023-11-21T06:27:14;100014.28;;;8.52;98.82
10115;BME280;5097;43.260;27.812;2023-11-21T06:29:58;100017.94;;;8.29;100.00
10115;BME280;5097;43.260;27.812;2023-11-21T06:32:44;100018.91;;;8.47;99.10
10115;BME280;5097;43.260;27.812;2023-11-21T06:35:30;100020.94;;;8.41;99.02
10115;BME280;5097;43.260;27.812;2023-11-21T06:38:16;99992.63;;;8.65;98.89
10115;BME280;5097;43.260;27.812;2023-11-21T06:41:00;100011.59;;;8.91;98.37
10115;BME280;5097;43.260;27.812;2023-11-21T06:43:47;99988.00;;;9.06;95.16
10115;BME280;5097;43.260;27.812;2023-11-21T06:46:32;100007.72;;;9.17;93.84
10115;BME280;5097;43.260;27.812;2023-11-21T06:49:18;100008.34;;;9.22;93.19
10115;BME280;5097;43.260;27.812;2023-11-21T06:52:02;100004.72;;;9.42;92.40
10115;BME280;5097;43.260;27.812;2023-11-21T06:54:47;100009.91;;;9.44;91.95
10115;BME280;5097;43.260;27.812;2023-11-21T06:57:32;99981.69;;;9.46;92.47
10115;BME280;5097;43.260;27.812;2023-11-21T07:00:17;100004.22;;;9.86;90.46
10115;BME280;5097;43.260;27.812;2023-11-21T07:03:01;99947.00;;;9.87;89.85
10115;BME280;5097;43.260;27.812;2023-11-21T07:05:47;99980.91;;;10.28;86.87
10115;BME280;5097;43.260;27.812;2023-11-21T07:08:32;99982.91;;;10.56;86.51
10115;BME280;5097;43.260;27.812;2023-11-21T07:11:16;100001.56;;;10.85;84.89
10115;BME280;5097;43.260;27.812;2023-11-21T07:14:00;99998.75;;;10.72;84.50
10115;BME280;5097;43.260;27.812;2023-11-21T07:16:48;100001.28;;;11.06;85.75
10115;BME280;5097;43.260;27.812;2023-11-21T07:19:32;99993.84;;;11.13;85.05
10115;BME280;5097;43.260;27.812;2023-11-21T07:22:18;100005.78;;;11.20;82.57
10115;BME280;5097;43.260;27.812;2023-11-21T07:25:05;99998.34;;;10.15;87.60
10115;BME280;5097;43.260;27.812;2023-11-21T07:27:50;99990.06;;;10.05;88.55
10115;BME280;5097;43.260;27.812;2023-11-21T07:30:35;99995.16;;;9.75;90.68
10115;BME280;5097;43.260;27.812;2023-11-21T07:33:20;99987.97;;;9.61;90.76
10115;BME280;5097;43.260;27.812;2023-11-21T07:36:06;99995.16;;;10.42;88.06
10115;BME280;5097;43.260;27.812;2023-11-21T07:38:52;100001.81;;;10.65;86.43
10115;BME280;5097;43.260;27.812;2023-11-21T07:41:36;99997.44;;;11.42;84.78
10115;BME280;5097;43.260;27.812;2023-11-21T07:44:27;99996.66;;;11.70;81.55
10115;BME280;5097;43.260;27.812;2023-11-21T07:47:11;100006.13;;;11.89;82.05
10115;BME280;5097;43.260;27.812;2023-11-21T07:49:55;99983.75;;;11.80;80.61
10115;BME280;5097;43.260;27.812;2023-11-21T07:52:40;99996.00;;;11.67;82.00
10115;BME280;5097;43.260;27.812;2023-11-21T07:55:26;100033.63;;;11.86;82.51
10115;BME280;5097;43.260;27.812;2023-11-21T07:58:10;100023.09;;;12.01;84.04
10115;BME280;5097;43.260;27.812;2023-11-21T08:00:55;100017.84;;;11.85;84.75
10115;BME280;5097;43.260;27.812;2023-11-21T08:03:39;99997.84;;;12.38;82.76
10115;BME280;5097;43.260;27.812;2023-11-21T08:06:24;100016.50;;;12.79;80.36
10115;BME280;5097;43.260;27.812;2023-11-21T08:09:09;100011.66;;;12.44;73.56
10115;BME280;5097;43.260;27.812;2023-11-21T08:11:56;100011.94;;;11.96;73.00
10115;BME280;5097;43.260;27.812;2023-11-21T08:14:40;99983.25;;;12.46;73.36
10115;BME280;5097;43.260;27.812;2023-11-21T08:17:25;100001.50;;;12.65;72.05
10115;BME280;5097;43.260;27.812;2023-11-21T08:20:10;99991.72;;;12.80;70.54
10115;BME280;5097;43.260;27.812;2023-11-21T08:22:55;100002.81;;;12.99;67.50
10115;BME280;5097;43.260;27.812;2023-11-21T08:25:39;100017.50;;;13.05;66.29
10115;BME280;5097;43.260;27.812;2023-11-21T08:28:26;100020.78;;;12.81;67.64
10115;BME280;5097;43.260;27.812;2023-11-21T08:31:10;100014.31;;;13.13;68.27
10115;BME280;5097;43.260;27.812;2023-11-21T08:33:55;100011.59;;;13.14;66.63
10115;BME280;5097;43.260;27.812;2023-11-21T08:36:42;100010.22;;;13.21;66.50
10115;BME280;5097;43.260;27.812;2023-11-21T08:39:26;100014.16;;;13.29;66.29
10115;BME280;5097;43.260;27.812;2023-11-21T08:42:10;99984.84;;;13.17;66.58
10115;BME280;5097;43.260;27.812;2023-11-21T08:44:56;100011.31;;;13.04;66.70
10115;BME280;5097;43.260;27.812;2023-11-21T08:47:40;100014.69;;;13.21;66.61
10115;BME280;5097;43.260;27.812;2023-11-21T08:50:27;100016.41;;;13.75;65.62
10115;BME280;5097;43.260;27.812;2023-11-21T08:53:11;100010.63;;;13.55;64.95
10115;BME280;5097;43.260;27.812;2023-11-21T08:55:55;100015.09;;;13.55;65.66
10115;BME280;5097;43.260;27.812;2023-11-21T08:58:39;99992.09;;;12.73;68.03
10115;BME280;5097;43.260;27.812;2023-11-21T09:01:26;100000.59;;;13.33;67.54
10115;BME280;5097;43.260;27.812;2023-11-21T09:04:10;99977.78;;;12.34;69.52
10115;BME280;5097;43.260;27.812;2023-11-21T09:06:55;99989.38;;;13.02;67.88
10115;BME280;5097;43.260;27.812;2023-11-21T09:09:39;99987.75;;;13.80;66.45
10115;BME280;5097;43.260;27.812;2023-11-21T09:12:23;99985.59;;;13.98;64.84
10115;BME280;5097;43.260;27.812;2023-11-21T09:15:09;99976.91;;;13.96;65.44
10115;BME280;5097;43.260;27.812;2023-11-21T09:17:55;99981.59;;;14.05;64.92
10115;BME280;5097;43.260;27.812;2023-11-21T09:20:40;99963.53;;;14.11;65.40
10115;BME280;5097;43.260;27.812;2023-11-21T09:23:24;99977.47;;;14.38;63.54
10115;BME280;5097;43.260;27.812;2023-11-21T09:26:08;99969.03;;;14.07;63.15
10115;BME280;5097;43.260;27.812;2023-11-21T09:28:52;99939.63;;;13.85;63.42
10115;BME280;5097;43.260;27.812;2023-11-21T09:31:39;99960.00;;;14.23;62.11
10115;BME280;5097;43.260;27.812;2023-11-21T09:34:26;99959.03;;;14.11;61.55
10115;BME280;5097;43.260;27.812;2023-11-21T09:37:10;99945.44;;;13.51;64.28
10115;BME280;5097;43.260;27.812;2023-11-21T09:39:55;99948.22;;;13.37;64.42
10115;BME280;5097;43.260;27.812;2023-11-21T09:42:40;99948.44;;;13.72;63.40
10115;BME280;5097;43.260;27.812;2023-11-21T09:45:27;99944.72;;;13.62;62.47
10115;BME280;5097;43.260;27.812;2023-11-21T09:48:12;99927.63;;;13.40;63.07
10115;BME280;5097;43.260;27.812;2023-11-21T09:50:59;99940.06;;;13.53;63.46
10115;BME280;5097;43.260;27.812;2023-11-21T09:53:44;99918.91;;;13.90;62.56
10115;BME280;5097;43.260;27.812;2023-11-21T09:56:32;99932.63;;;13.58;62.96
10115;BME280;5097;43.260;27.812;2023-11-21T09:59:16;99931.44;;;13.62;63.54
10115;BME280;5097;43.260;27.812;2023-11-21T10:02:01;99927.22;;;13.47;63.66
10115;BME280;5097;43.260;27.812;2023-11-21T10:04:46;99929.69;;;13.35;64.51
10115;BME280;5097;43.260;27.812;2023-11-21T10:07:34;99926.38;;;13.72;63.33
10115;BME280;5097;43.260;27.812;2023-11-21T10:10:19;99912.97;;;13.61;64.55
10115;BME280;5097;43.260;27.812;2023-11-21T10:13:06;99923.38;;;13.89;63.66
10115;BME280;5097;43.260;27.812;2023-11-21T10:15:51;99923.31;;;14.28;60.54
10115;BME280;5097;43.260;27.812;2023-11-21T10:18:36;99918.78;;;14.04;62.09
10115;BME280;5097;43.260;27.812;2023-11-21T10:21:22;99899.84;;;14.22;62.34
10115;BME280;5097;43.260;27.812;2023-11-21T10:24:08;99918.06;;;14.77;58.91
10115;BME280;5097;43.260;27.812;2023-11-21T10:26:52;99903.44;;;14.58;59.94
10115;BME280;5097;43.260;27.812;2023-11-21T10:29:36;99911.69;;;14.90;60.23
10115;BME280;5097;43.260;27.812;2023-11-21T10:32:20;99907.34;;;15.25;59.98
10115;BME280;5097;43.260;27.812;2023-11-21T10:35:07;99902.06;;;15.59;58.11
10115;BME280;5097;43.260;27.812;2023-11-21T10:38:00;99884.16;;;15.38;58.18
10115;BME280;5097;43.260;27.812;2023-11-21T10:40:47;99909.50;;;16.23;56.45
10115;BME280;5097;43.260;27.812;2023-11-21T10:43:32;99905.00;;;16.24;55.89
10115;BME280;5097;43.260;27.812;2023-11-21T10:46:17;99892.69;;;16.55;54.42
10115;BME280;5097;43.260;27.812;2023-11-21T10:49:01;99901.00;;;16.73;54.64
10115;BME280;5097;43.260;27.812;2023-11-21T10:51:46;99901.09;;;16.51;53.87
10115;BME280;5097;43.260;27.812;2023-11-21T10:54:31;99896.97;;;16.35;52.27
10115;BME280;5097;43.260;27.812;2023-11-21T10:57:18;99897.97;;;16.23;52.12
10115;BME280;5097;43.260;27.812;2023-11-21T11:00:05;99885.66;;;15.99;53.26
10115;BME280;5097;43.260;27.812;2023-11-21T11:02:51;99879.56;;;15.52;53.51
10115;BME280;5097;43.260;27.812;2023-11-21T11:05:37;99887.81;;;15.49;53.20
10115;BME280;5097;43.260;27.812;2023-11-21T11:08:22;99879.78;;;15.26;54.50
10115;BME280;5097;43.260;27.812;2023-11-21T11:11:10;99875.94;;;15.64;53.56
10115;BME280;5097;43.260;27.812;2023-11-21T11:13:58;99885.09;;;15.37;53.91
10115;BME280;5097;43.260;27.812;2023-11-21T11:16:43;99877.81;;;15.17;54.74
10115;BME280;5097;43.260;27.812;2023-11-21T11:19:28;99883.09;;;15.05;54.18
10115;BME280;5097;43.260;27.812;2023-11-21T11:22:24;99853.38;;;15.12;54.08
10115;BME280;5097;43.260;27.812;2023-11-21T11:25:27;99849.53;;;15.50;51.92
10115;BME280;5097;43.260;27.812;2023-11-21T11:28:18;99860.59;;;16.13;52.73
10115;BME280;5097;43.260;27.812;2023-11-21T11:31:10;99851.28;;;15.85;49.88
10115;BME280;5097;43.260;27.812;2023-11-21T11:34:08;99851.03;;;15.88;50.94
10115;BME280;5097;43.260;27.812;2023-11-21T11:37:00;99852.50;;;16.03;50.42
10115;BME280;5097;43.260;27.812;2023-11-21T11:39:46;99853.69;;;15.99;49.86
10115;BME280;5097;43.260;27.812;2023-11-21T11:42:32;99848.72;;;15.61;50.37
10115;BME280;5097;43.260;27.812;2023-11-21T11:45:19;99851.38;;;15.72;51.03
10115;BME280;5097;43.260;27.812;2023-11-21T11:48:05;99844.47;;;15.47;50.80
10115;BME280;5097;43.260;27.812;2023-11-21T11:51:06;99838.44;;;16.01;49.93
10115;BME280;5097;43.260;27.812;2023-11-21T11:53:51;99847.59;;;15.29;51.00
10115;BME280;5097;43.260;27.812;2023-11-21T11:56:36;99848.72;;;15.61;51.12
10115;BME280;5097;43.260;27.812;2023-11-21T11:59:22;99823.41;;;15.78;50.93
10115;BME280;5097;43.260;27.812;2023-11-21T12:02:08;99846.03;;;15.49;50.83
10115;BME280;5097;43.260;27.812;2023-11-21T12:04:56;99842.31;;;15.52;51.06
10115;BME280;5097;43.260;27.812;2023-11-21T12:07:48;99852.00;;;15.87;51.19
10115;BME280;5097;43.260;27.812;2023-11-21T12:10:36;99816.63;;;15.73;49.77
10115;BME280;5097;43.260;27.812;2023-11-21T12:13:21;99850.53;;;15.60;49.49
10115;BME280;5097;43.260;27.812;2023-11-21T12:16:06;99844.97;;;15.74;50.13
10115;BME280;5097;43.260;27.812;2023-11-21T12:18:51;99836.00;;;15.75;50.89
10115;BME280;5097;43.260;27.812;2023-11-21T12:21:38;99837.72;;;15.88;49.40
10115;BME280;5097;43.260;27.812;2023-11-21T12:24:23;99840.25;;;15.78;50.26
10115;BME280;5097;43.260;27.812;2023-11-21T12:27:08;99834.31;;;15.97;49.09
10115;BME280;5097;43.260;27.812;2023-11-21T12:29:52;99829.78;;;16.20;49.75
10115;BME280;5097;43.260;27.812;2023-11-21T12:32:39;99808.22;;;16.23;48.49
10115;BME280;5097;43.260;27.812;2023-11-21T12:35:25;99814.00;;;16.29;47.92
10115;BME280;5097;43.260;27.812;2023-11-21T12:38:11;99811.66;;;16.03;49.25
10115;BME280;5097;43.260;27.812;2023-11-21T12:40:56;99821.56;;;16.12;49.04
10115;BME280;5097;43.260;27.812;2023-11-21T12:43:40;99823.00;;;16.16;48.52
10115;BME280;5097;43.260;27.812;2023-11-21T12:46:26;99822.00;;;15.85;49.83
10115;BME280;5097;43.260;27.812;2023-11-21T12:49:14;99788.22;;;15.74;50.24
10115;BME280;5097;43.260;27.812;2023-11-21T12:52:00;99812.75;;;15.55;52.23
10115;BME280;5097;43.260;27.812;2023-11-21T12:54:48;99810.56;;;16.05;50.13
10115;BME280;5097;43.260;27.812;2023-11-21T12:57:33;99809.97;;;16.02;50.10
10115;BME280;5097;43.260;27.812;2023-11-21T13:00:28;99787.72;;;15.69;51.34
10115;BME280;5097;43.260;27.812;2023-11-21T13:03:13;99815.81;;;15.84;50.78
10115;BME280;5097;43.260;27.812;2023-11-21T13:06:01;99824.88;;;15.82;50.35
10115;BME280;5097;43.260;27.812;2023-11-21T13:08:46;99811.81;;;15.90;50.49
10115;BME280;5097;43.260;27.812;2023-11-21T13:11:35;99801.66;;;15.61;50.40
10115;BME280;5097;43.260;27.812;2023-11-21T13:14:20;99782.50;;;15.79;50.98
10115;BME280;5097;43.260;27.812;2023-11-21T13:17:12;99813.25;;;15.26;52.30
10115;BME280;5097;43.260;27.812;2023-11-21T13:19:56;99793.19;;;15.67;50.85
10115;BME280;5097;43.260;27.812;2023-11-21T13:22:45;99793.28;;;15.66;51.23
10115;BME280;5097;43.260;27.812;2023-11-21T13:25:30;99806.72;;;15.53;52.92
10115;BME280;5097;43.260;27.812;2023-11-21T13:28:16;99796.06;;;15.64;52.80
10115;BME280;5097;43.260;27.812;2023-11-21T13:31:01;99799.56;;;15.76;52.63
10115;BME280;5097;43.260;27.812;2023-11-21T13:33:54;99802.00;;;15.45;53.92
10115;BME280;5097;43.260;27.812;2023-11-21T13:36:48;99770.03;;;15.68;54.04
10115;BME280;5097;43.260;27.812;2023-11-21T13:39:36;99768.50;;;15.54;54.27
10115;BME280;5097;43.260;27.812;2023-11-21T13:42:26;99805.88;;;15.64;54.70
10115;BME280;5097;43.260;27.812;2023-11-21T13:45:13;99764.63;;;15.58;53.80
10115;BME280;5097;43.260;27.812;2023-11-21T13:47:59;99797.63;;;15.78;55.29
10115;BME280;5097;43.260;27.812;2023-11-21T13:50:43;99801.38;;;15.64;54.82
10115;BME280;5097;43.260;27.812;2023-11-21T13:53:31;99774.41;;;15.35;54.49
10115;BME280;5097;43.260;27.812;2023-11-21T13:56:19;99795.47;;;15.49;52.76
10115;BME280;5097;43.260;27.812;2023-11-21T13:59:07;99797.03;;;15.29;53.32
10115;BME280;5097;43.260;27.812;2023-11-21T14:02:02;99770.19;;;15.32;52.98
10115;BME280;5097;43.260;27.812;2023-11-21T14:05:00;99791.19;;;15.01;53.13
10115;BME280;5097;43.260;27.812;2023-11-21T14:07:51;99761.72;;;15.04;53.07
10115;BME280;5097;43.260;27.812;2023-11-21T14:10:36;99785.72;;;14.80;53.67
10115;BME280;5097;43.260;27.812;2023-11-21T14:13:25;99781.06;;;15.06;54.81
10115;BME280;5097;43.260;27.812;2023-11-21T14:16:09;99778.59;;;14.81;54.83
10115;BME280;5097;43.260;27.812;2023-11-21T14:18:55;99760.31;;;14.40;55.32
10115;BME280;5097;43.260;27.812;2023-11-21T14:21:45;99758.00;;;14.12;55.81
10115;BME280;5097;43.260;27.812;2023-11-21T14:24:31;99769.88;;;13.70;57.51
10115;BME280;5097;43.260;27.812;2023-11-21T14:27:16;99784.81;;;14.08;58.42
10115;BME280;5097;43.260;27.812;2023-11-21T14:30:00;99790.94;;;13.85;58.63
10115;BME280;5097;43.260;27.812;2023-11-21T14:32:45;99802.22;;;14.13;58.27
10115;BME280;5097;43.260;27.812;2023-11-21T14:35:31;99795.28;;;13.86;58.41
10115;BME280;5097;43.260;27.812;2023-11-21T14:38:17;99793.91;;;13.93;58.80